KBWI/BWI METAR and TAF weather

Enter ICAO airport designator
Station Type Date Time Source
KBWI METAR 2018/01/19 22:54 UTC NOAA

KBWI 192254Z 16004KT 10SM FEW160 FEW250 06/M08 A3003 RMK AO2 SLP169 T00561083


Station Type Date Time Source
KBWI Decoded METAR 2018/01/19 22:54 UTC NOAA

BALTIMORE-WASHINGTON INTERNATIONAL , MD, United States (KBWI) 39-10N 076-41W 59M
Jan 19, 2018 - 05:54 PM EST / 2018.01.19 2254 UTC
Wind: from the SSE (160 degrees) at 5 MPH (4 KT):0
Visibility: 10 mile(s):0
Sky conditions: mostly clear
Temperature: 42.1 F (5.6 C)
Dew Point: 17.1 F (-8.3 C)
Relative Humidity: 35%
Pressure (altimeter): 30.03 in. Hg (1016 hPa)
ob: KBWI 192254Z 16004KT 10SM FEW160 FEW250 06/M08 A3003 RMK AO2 SLP169 T00561083
cycle: 23

Station Type Date Time Source
KBWI TAF 2018/01/19 21:58 UTC NOAA

TAF
AMD KBWI 192056Z 1921/2024 22006KT P6SM FEW250


Example: see airport list